createdAt,value
2022-09-07T00:01:17.202Z,14.25
2022-09-07T00:03:45.896Z,14.94
2022-09-07T00:06:15.096Z,14.94
2022-09-07T00:08:46.852Z,14.76
2022-09-07T00:11:20.302Z,14.92
2022-09-07T00:13:50.113Z,14.76
2022-09-07T00:16:24.920Z,14.93
2022-09-07T00:18:56.302Z,14.92
2022-09-07T00:21:26.079Z,14.80
2022-09-07T00:23:55.271Z,14.65
2022-09-07T00:26:27.856Z,14.89
2022-09-07T00:29:01.942Z,14.88
2022-09-07T00:31:31.269Z,14.85
2022-09-07T00:34:01.387Z,14.84
2022-09-07T00:36:29.874Z,14.80
2022-09-07T00:38:58.620Z,14.65
2022-09-07T00:41:26.875Z,14.92
2022-09-07T00:44:19.673Z,14.59
2022-09-07T00:46:48.555Z,14.47
2022-09-07T00:49:21.560Z,14.66
2022-09-07T00:52:01.397Z,14.81
2022-09-07T00:54:42.619Z,14.65
2022-09-07T00:57:10.516Z,14.78
2022-09-07T00:59:44.089Z,14.60
2022-09-07T01:02:14.261Z,14.80
2022-09-07T01:04:46.844Z,14.50
2022-09-07T01:07:14.669Z,14.60
2022-09-07T01:09:47.403Z,14.75
2022-09-07T01:12:15.817Z,14.45
2022-09-07T01:14:47.822Z,14.67
2022-09-07T01:17:33.834Z,14.70
2022-09-07T01:20:28.974Z,14.71
2022-09-07T01:23:14.510Z,14.69
2022-09-07T01:26:01.016Z,14.63
2022-09-07T01:28:32.328Z,14.62
2022-09-07T01:31:29.902Z,14.63
2022-09-07T01:34:09.378Z,14.61
2022-09-07T01:36:57.848Z,14.28
2022-09-07T01:39:35.714Z,14.27
2022-09-07T01:42:31.367Z,14.47
2022-09-07T01:45:02.507Z,14.42
2022-09-07T01:47:36.326Z,14.25
2022-09-07T01:50:06.506Z,14.49
2022-09-07T01:52:56.680Z,14.49
2022-09-07T01:55:28.000Z,14.39
2022-09-07T01:58:02.503Z,14.30
2022-09-07T02:00:31.378Z,14.51
2022-09-07T02:03:13.040Z,14.34
2022-09-07T02:06:03.678Z,14.53
2022-09-07T02:08:40.339Z,14.51
2022-09-07T02:11:18.358Z,14.53
2022-09-07T02:13:52.360Z,14.40
2022-09-07T02:16:25.084Z,14.49
2022-09-07T02:19:05.603Z,14.50
2022-09-07T02:21:51.074Z,14.32
2022-09-07T02:24:25.861Z,14.46
2022-09-07T02:26:56.404Z,14.19
2022-09-07T02:29:28.048Z,14.25
2022-09-07T02:31:59.336Z,14.34
2022-09-07T02:34:28.097Z,14.22
2022-09-07T02:36:58.872Z,14.21
2022-09-07T02:39:27.554Z,14.35
2022-09-07T02:41:56.216Z,14.37
2022-09-07T02:44:31.870Z,14.12
2022-09-07T02:47:24.689Z,14.38
2022-09-07T02:50:14.051Z,14.39
2022-09-07T02:52:53.815Z,14.40
2022-09-07T02:55:43.113Z,14.40
2022-09-07T02:58:29.600Z,14.35
2022-09-07T03:01:16.952Z,14.33
2022-09-07T03:03:51.410Z,14.23
2022-09-07T03:06:27.038Z,14.37
2022-09-07T03:08:58.748Z,14.36
2022-09-07T03:11:29.953Z,14.42
2022-09-07T03:14:24.733Z,14.39
2022-09-07T03:16:56.797Z,14.29
2022-09-07T03:19:28.308Z,14.35
2022-09-07T03:21:57.513Z,14.36
2022-09-07T03:24:27.224Z,14.36
2022-09-07T03:26:56.833Z,14.22
2022-09-07T03:29:26.072Z,14.27
2022-09-07T03:31:58.092Z,14.17
2022-09-07T03:34:27.191Z,14.26
2022-09-07T03:36:56.464Z,14.27
2022-09-07T03:39:27.020Z,14.38
2022-09-07T03:41:55.413Z,14.12
2022-09-07T03:44:24.213Z,14.10
2022-09-07T03:46:52.855Z,14.09
2022-09-07T03:49:21.484Z,14.15
2022-09-07T03:51:49.974Z,14.12
2022-09-07T03:54:18.308Z,14.23
2022-09-07T03:56:47.622Z,14.28
2022-09-07T03:59:16.971Z,14.10
2022-09-07T04:01:46.726Z,13.93
2022-09-07T04:04:16.498Z,14.04
2022-09-07T04:06:44.827Z,14.24
2022-09-07T04:09:14.902Z,14.11
2022-09-07T04:11:43.590Z,14.13
2022-09-07T04:14:13.107Z,14.05
2022-09-07T04:16:42.985Z,14.17
2022-09-07T04:19:12.165Z,14.16
2022-09-07T04:21:41.426Z,14.16
2022-09-07T04:24:12.365Z,13.89
2022-09-07T04:26:43.919Z,13.98
2022-09-07T04:29:14.181Z,13.96
2022-09-07T04:31:42.430Z,14.13
2022-09-07T04:34:12.814Z,14.04
2022-09-07T04:36:41.756Z,13.99
2022-09-07T04:39:11.990Z,14.00
2022-09-07T04:41:41.317Z,14.09
2022-09-07T04:44:16.149Z,14.09
2022-09-07T04:46:45.247Z,14.07
2022-09-07T04:49:14.030Z,13.72
2022-09-07T04:51:45.169Z,13.82
2022-09-07T04:54:13.545Z,13.64
2022-09-07T04:56:41.929Z,13.46
2022-09-07T04:59:10.358Z,13.75
2022-09-07T05:01:38.741Z,13.98
2022-09-07T05:04:07.020Z,13.80
2022-09-07T05:06:35.164Z,13.92
2022-09-07T05:09:03.652Z,14.19
2022-09-07T05:11:31.927Z,14.20
2022-09-07T05:14:02.261Z,14.09
2022-09-07T05:16:31.971Z,14.30
2022-09-07T05:19:02.392Z,14.36
2022-09-07T05:21:35.085Z,14.45
2022-09-07T05:24:04.505Z,14.09
2022-09-07T05:26:36.048Z,14.58
2022-09-07T05:31:58.291Z,14.67
2022-09-07T05:37:00.883Z,14.82
2022-09-07T05:39:30.193Z,14.59
2022-09-07T05:41:58.621Z,14.71
2022-09-07T05:47:11.444Z,14.81
2022-09-07T05:49:39.177Z,15.10
2022-09-07T05:52:08.487Z,15.20
2022-09-07T05:54:36.240Z,14.93
2022-09-07T05:57:05.457Z,15.34
2022-09-07T05:59:34.140Z,14.40
2022-09-07T06:02:02.304Z,15.31
2022-09-07T06:04:29.987Z,15.31
2022-09-07T06:12:38.192Z,15.58
2022-09-07T06:15:07.214Z,15.52
2022-09-07T06:17:35.906Z,15.52
2022-09-07T06:20:06.027Z,15.86
2022-09-07T06:22:38.090Z,15.99
2022-09-07T06:25:06.780Z,16.15
2022-09-07T06:27:34.320Z,16.11
2022-09-07T06:30:04.258Z,16.21
2022-09-07T06:32:47.581Z,16.15
2022-09-07T06:35:16.072Z,16.18
2022-09-07T06:37:44.456Z,16.20
2022-09-07T06:40:13.070Z,16.34
2022-09-07T06:42:41.335Z,16.22
2022-09-07T06:45:11.877Z,16.21
2022-09-07T06:47:40.693Z,16.51
2022-09-07T06:50:13.228Z,16.53
2022-09-07T06:55:29.548Z,16.78
2022-09-07T06:57:57.582Z,16.83
2022-09-07T07:00:25.913Z,16.76
2022-09-07T07:02:54.140Z,16.70
2022-09-07T07:05:22.340Z,17.00
2022-09-07T07:07:50.436Z,17.11
2022-09-07T07:10:23.731Z,16.79
2022-09-07T07:12:57.811Z,16.69
2022-09-07T07:15:28.829Z,17.32
2022-09-07T07:18:02.602Z,17.19
2022-09-07T07:20:38.999Z,17.50
2022-09-07T07:23:07.144Z,17.56
2022-09-07T07:25:37.031Z,17.31
2022-09-07T07:30:57.982Z,17.73
2022-09-07T07:33:29.531Z,17.75
2022-09-07T07:36:19.076Z,17.93
2022-09-07T07:44:20.222Z,18.05
2022-09-07T07:46:49.554Z,18.18
2022-09-07T07:49:17.459Z,18.37
2022-09-07T07:54:37.158Z,18.50
2022-09-07T07:57:07.167Z,18.26
2022-09-07T07:59:35.966Z,18.31
2022-09-07T08:02:06.781Z,18.69
2022-09-07T08:04:35.758Z,18.60
2022-09-07T08:07:10.154Z,18.84
2022-09-07T08:09:48.491Z,18.85
2022-09-07T08:12:18.650Z,18.90
2022-09-07T08:14:48.482Z,19.08
2022-09-07T08:17:17.968Z,19.09
2022-09-07T08:19:46.128Z,19.04
2022-09-07T08:22:14.178Z,19.18
2022-09-07T08:24:42.322Z,18.91
2022-09-07T08:27:10.805Z,19.31
2022-09-07T08:29:38.939Z,19.40
2022-09-07T08:32:07.461Z,19.51
2022-09-07T08:34:37.394Z,19.65
2022-09-07T08:37:05.733Z,19.70
2022-09-07T08:39:34.318Z,19.67
2022-09-07T08:42:37.191Z,19.88
2022-09-07T08:45:07.292Z,19.96
2022-09-07T08:47:51.655Z,20.08
2022-09-07T08:50:34.260Z,20.01
2022-09-07T08:53:09.090Z,20.27
2022-09-07T08:55:39.626Z,20.38
2022-09-07T08:58:48.284Z,20.49
2022-09-07T09:01:35.724Z,20.61
2022-09-07T09:04:18.803Z,20.54
2022-09-07T09:07:00.758Z,20.66
2022-09-07T09:09:48.064Z,20.66
2022-09-07T09:13:02.307Z,20.65
2022-09-07T09:15:39.646Z,20.72
2022-09-07T09:18:28.068Z,20.69
2022-09-07T09:20:58.766Z,20.89
2022-09-07T09:23:31.230Z,20.83
2022-09-07T09:26:18.903Z,20.76
2022-09-07T09:28:47.135Z,21.09
2022-09-07T09:31:26.014Z,20.93
2022-09-07T09:34:05.659Z,21.18
2022-09-07T09:36:40.339Z,21.22
2022-09-07T09:39:29.550Z,21.19
2022-09-07T09:42:02.018Z,20.95
2022-09-07T09:44:37.759Z,21.14
2022-09-07T09:49:58.004Z,20.93
2022-09-07T09:52:31.815Z,21.17
2022-09-07T09:55:30.145Z,21.03
2022-09-07T10:03:55.113Z,20.96
2022-09-07T10:06:26.360Z,21.30
2022-09-07T10:09:00.278Z,21.32
2022-09-07T10:14:45.712Z,21.52
2022-09-07T10:17:20.444Z,21.54
2022-09-07T10:19:50.131Z,21.62
2022-09-07T10:22:40.986Z,21.49
2022-09-07T10:25:28.509Z,21.60
2022-09-07T10:28:04.321Z,21.70
2022-09-07T10:30:41.885Z,21.76
2022-09-07T10:33:28.203Z,21.69
2022-09-07T10:36:13.083Z,22.10
2022-09-07T10:39:17.590Z,22.02
2022-09-07T10:42:05.512Z,22.20
2022-09-07T10:44:42.584Z,22.28
2022-09-07T10:47:31.575Z,22.29
2022-09-07T10:50:29.252Z,22.31
2022-09-07T10:53:45.191Z,22.24
2022-09-07T10:56:16.143Z,22.43
2022-09-07T10:59:05.046Z,22.40
2022-09-07T11:01:59.751Z,22.53
2022-09-07T11:04:48.178Z,22.56
2022-09-07T11:07:28.628Z,22.71
2022-09-07T11:10:03.450Z,22.74
2022-09-07T11:12:39.766Z,22.75
2022-09-07T11:15:28.976Z,22.99
2022-09-07T11:18:00.888Z,23.07
2022-09-07T11:20:45.001Z,23.13
2022-09-07T11:23:21.774Z,22.97
2022-09-07T11:26:01.831Z,23.24
2022-09-07T11:28:41.968Z,23.04
2022-09-07T11:31:46.274Z,23.24
2022-09-07T11:34:36.668Z,23.33
2022-09-07T11:37:16.899Z,23.42
2022-09-07T11:39:53.948Z,23.28
2022-09-07T11:42:48.814Z,23.54
2022-09-07T11:45:19.729Z,23.61
2022-09-07T11:48:00.479Z,23.60
2022-09-07T11:50:33.074Z,23.67
2022-09-07T11:53:30.197Z,23.77
2022-09-07T11:56:03.826Z,23.61
2022-09-07T11:58:43.752Z,23.76
2022-09-07T12:01:55.429Z,23.78
2022-09-07T12:04:44.870Z,23.80
2022-09-07T12:07:39.189Z,23.85
2022-09-07T12:10:10.167Z,23.84
2022-09-07T12:13:08.202Z,23.99
2022-09-07T12:16:00.530Z,23.91
2022-09-07T12:18:34.563Z,24.07
2022-09-07T12:21:02.287Z,24.23
2022-09-07T12:23:31.991Z,24.27
2022-09-07T12:26:35.022Z,24.36
2022-09-07T12:29:17.942Z,24.41
2022-09-07T12:31:57.712Z,24.43
2022-09-07T12:34:33.793Z,24.47
2022-09-07T12:37:03.405Z,24.30
2022-09-07T12:39:33.206Z,24.52
2022-09-07T12:45:44.335Z,24.40
2022-09-07T12:48:18.282Z,24.37
2022-09-07T12:51:11.999Z,24.39
2022-09-07T12:53:57.447Z,24.45
2022-09-07T13:00:26.443Z,24.50
2022-09-07T13:09:31.749Z,24.46
2022-09-07T13:12:01.351Z,24.35
2022-09-07T13:14:29.949Z,24.45
2022-09-07T13:17:28.617Z,24.57
2022-09-07T13:20:07.171Z,24.55
2022-09-07T13:23:00.928Z,24.52
2022-09-07T13:25:53.255Z,24.41
2022-09-07T13:28:27.478Z,24.33
2022-09-07T13:31:14.239Z,24.31
2022-09-07T13:33:50.887Z,24.28
2022-09-07T13:36:48.960Z,24.08
2022-09-07T13:39:21.688Z,24.15
2022-09-07T13:41:54.630Z,23.95
2022-09-07T13:44:26.556Z,24.00
2022-09-07T13:46:58.878Z,24.15
2022-09-07T13:50:11.327Z,24.08
2022-09-07T13:53:14.897Z,23.98
2022-09-07T13:55:51.954Z,24.01
2022-09-07T13:58:39.929Z,24.02
2022-09-07T14:01:13.705Z,24.11
2022-09-07T14:03:54.224Z,24.15
2022-09-07T14:06:21.722Z,24.13
2022-09-07T14:09:14.940Z,24.07
2022-09-07T14:11:46.981Z,24.08
2022-09-07T14:14:22.760Z,24.12
2022-09-07T14:17:01.844Z,24.08
2022-09-07T14:19:46.037Z,23.98
2022-09-07T14:22:17.907Z,24.10
2022-09-07T14:24:54.771Z,24.05
2022-09-07T14:27:39.918Z,24.17
2022-09-07T14:30:19.594Z,24.22
2022-09-07T14:32:49.208Z,24.20
2022-09-07T14:35:20.490Z,24.01
2022-09-07T14:37:49.893Z,24.19
2022-09-07T14:40:22.315Z,24.25
2022-09-07T14:42:52.052Z,24.24
2022-09-07T14:45:22.901Z,24.43
2022-09-07T14:47:54.345Z,24.39
2022-09-07T14:50:32.182Z,24.40
2022-09-07T14:56:02.282Z,24.37
2022-09-07T14:58:35.150Z,24.39
2022-09-07T15:04:04.500Z,24.22
2022-09-07T15:09:39.403Z,23.89
2022-09-07T15:12:36.516Z,23.73
2022-09-07T15:15:26.173Z,23.72
2022-09-07T15:18:00.838Z,23.26
2022-09-07T15:20:40.353Z,23.43
2022-09-07T15:23:16.420Z,23.20
2022-09-07T15:25:50.855Z,23.11
2022-09-07T15:34:12.150Z,22.90
2022-09-07T15:36:43.129Z,22.69
2022-09-07T15:39:37.596Z,22.69
2022-09-07T15:44:54.305Z,22.23
2022-09-07T15:50:13.851Z,22.35
2022-09-07T15:52:41.880Z,22.23
2022-09-07T15:55:10.068Z,22.19
2022-09-07T15:58:05.510Z,21.82
2022-09-07T16:00:30.310Z,21.89
2022-09-07T16:03:06.812Z,21.92
2022-09-07T16:05:39.883Z,21.82
2022-09-07T16:11:04.499Z,21.58
2022-09-07T16:13:33.529Z,21.51
2022-09-07T16:16:02.249Z,21.39
2022-09-07T16:18:31.814Z,21.28
2022-09-07T16:21:12.591Z,21.29
2022-09-07T16:23:42.549Z,20.58
2022-09-07T16:26:12.161Z,20.71
2022-09-07T16:28:42.797Z,20.85
2022-09-07T16:31:15.311Z,20.52
2022-09-07T16:33:43.259Z,20.64
2022-09-07T16:36:13.369Z,20.14
2022-09-07T16:38:45.358Z,20.38
2022-09-07T16:41:17.559Z,20.50
2022-09-07T16:43:46.203Z,20.29
2022-09-07T16:46:16.588Z,20.32
2022-09-07T16:48:44.345Z,20.25
2022-09-07T16:51:13.959Z,20.10
2022-09-07T16:53:42.025Z,20.14
2022-09-07T16:56:12.174Z,20.15
2022-09-07T16:58:41.860Z,19.99
2022-09-07T17:01:11.609Z,20.04
2022-09-07T17:03:39.998Z,19.92
2022-09-07T17:06:09.827Z,19.76
2022-09-07T17:08:39.070Z,19.78
2022-09-07T17:11:36.830Z,19.71
2022-09-07T17:14:06.885Z,19.66
2022-09-07T17:16:37.247Z,19.44
2022-09-07T17:21:55.229Z,19.32
2022-09-07T17:24:25.549Z,19.39
2022-09-07T17:26:53.728Z,19.25
2022-09-07T17:29:21.805Z,19.13
2022-09-07T17:34:37.764Z,19.14
2022-09-07T17:37:06.092Z,18.98
2022-09-07T17:39:34.273Z,18.50
2022-09-07T17:42:02.352Z,18.91
2022-09-07T17:44:35.823Z,18.95
2022-09-07T17:47:06.600Z,18.89
2022-09-07T17:49:36.914Z,18.57
2022-09-07T17:52:05.971Z,18.75
2022-09-07T17:54:34.364Z,17.89
2022-09-07T17:57:03.519Z,18.66
2022-09-07T18:02:19.701Z,18.15
2022-09-07T18:04:47.754Z,18.20
2022-09-07T18:07:15.761Z,18.44
2022-09-07T18:09:44.033Z,18.39
2022-09-07T18:12:12.934Z,18.34
2022-09-07T18:14:40.965Z,18.25
2022-09-07T18:17:09.303Z,17.84
2022-09-07T18:19:38.802Z,18.15
2022-09-07T18:22:07.099Z,17.78
2022-09-07T18:24:37.162Z,17.88
2022-09-07T18:27:05.948Z,17.90
2022-09-07T18:29:34.805Z,17.68
2022-09-07T18:32:08.434Z,17.83
2022-09-07T18:34:41.028Z,17.79
2022-09-07T18:37:12.585Z,17.52
2022-09-07T18:39:41.185Z,17.56
2022-09-07T18:42:10.113Z,16.53
2022-09-07T18:47:29.341Z,17.30
2022-09-07T18:49:58.769Z,17.21
2022-09-07T18:55:18.285Z,17.44
2022-09-07T18:57:46.488Z,17.18
2022-09-07T19:00:17.625Z,17.25
2022-09-07T19:02:51.565Z,17.08
2022-09-07T19:08:08.889Z,16.86
2022-09-07T19:10:37.591Z,16.81
2022-09-07T19:13:05.721Z,16.42
2022-09-07T19:15:37.478Z,16.80
2022-09-07T19:18:07.941Z,16.59
2022-09-07T19:20:37.643Z,16.72
2022-09-07T19:23:06.736Z,16.70
2022-09-07T19:25:34.765Z,16.70
2022-09-07T19:28:02.918Z,16.57
2022-09-07T19:30:30.971Z,16.72
2022-09-07T19:33:03.501Z,16.68
2022-09-07T19:35:35.474Z,16.61
2022-09-07T19:38:03.613Z,16.30
2022-09-07T19:40:31.620Z,16.73
2022-09-07T19:42:59.771Z,16.42
2022-09-07T19:45:28.763Z,16.32
2022-09-07T19:47:57.181Z,16.45
2022-09-07T19:50:25.429Z,16.72
2022-09-07T19:52:53.702Z,16.65
2022-09-07T19:55:22.030Z,16.60
2022-09-07T19:57:51.742Z,16.46
2022-09-07T20:00:20.128Z,16.74
2022-09-07T20:02:52.603Z,16.69
2022-09-07T20:05:20.775Z,16.71
2022-09-07T20:07:48.776Z,16.54
2022-09-07T20:10:17.035Z,16.25
2022-09-07T20:12:44.962Z,16.70
2022-09-07T20:15:12.901Z,16.68
2022-09-07T20:17:41.370Z,16.54
2022-09-07T20:20:11.948Z,16.68
2022-09-07T20:22:40.649Z,16.60
2022-09-07T20:25:13.020Z,16.50
2022-09-07T20:27:41.955Z,16.58
2022-09-07T20:30:10.738Z,16.52
2022-09-07T20:32:40.781Z,16.66
2022-09-07T20:35:09.323Z,16.54
2022-09-07T20:37:38.138Z,16.59
2022-09-07T20:40:07.469Z,16.41
2022-09-07T20:42:36.399Z,16.29
2022-09-07T20:45:05.021Z,16.27
2022-09-07T20:53:53.687Z,16.70
2022-09-07T20:56:24.337Z,16.60
2022-09-07T20:59:00.231Z,16.42
2022-09-07T21:01:29.325Z,16.32
2022-09-07T21:03:59.338Z,16.43
2022-09-07T21:06:28.345Z,16.08
2022-09-07T21:08:57.348Z,16.24
2022-09-07T21:11:31.396Z,16.33
2022-09-07T21:14:07.868Z,16.33
2022-09-07T21:16:36.204Z,16.16
2022-09-07T21:19:06.117Z,16.31
2022-09-07T21:21:39.473Z,16.30
2022-09-07T21:24:19.459Z,16.22
2022-09-07T21:26:48.146Z,16.26
2022-09-07T21:29:21.851Z,16.21
2022-09-07T21:31:49.751Z,16.15
2022-09-07T21:34:17.648Z,16.24
2022-09-07T21:36:46.300Z,16.23
2022-09-07T21:39:14.932Z,16.03
2022-09-07T21:41:44.388Z,16.25
2022-09-07T21:44:14.786Z,16.17
2022-09-07T21:46:44.378Z,16.27
2022-09-07T21:49:13.451Z,16.27
2022-09-07T21:51:42.730Z,15.97
2022-09-07T21:54:11.174Z,16.23
2022-09-07T21:56:43.241Z,16.25
2022-09-07T21:59:14.908Z,16.23
2022-09-07T22:01:43.451Z,16.17
2022-09-07T22:04:12.519Z,16.20
2022-09-07T22:06:41.506Z,16.00
2022-09-07T22:09:09.557Z,16.17
2022-09-07T22:11:37.680Z,16.18
2022-09-07T22:14:06.523Z,16.19
2022-09-07T22:16:36.137Z,16.17
2022-09-07T22:19:05.647Z,16.17
2022-09-07T22:21:34.404Z,16.15
2022-09-07T22:24:05.395Z,16.02
2022-09-07T22:26:37.756Z,16.17
2022-09-07T22:29:06.820Z,16.14
2022-09-07T22:31:36.795Z,16.13
2022-09-07T22:34:10.181Z,16.13
2022-09-07T22:36:41.151Z,16.00
2022-09-07T22:39:16.219Z,15.76
2022-09-07T22:41:46.009Z,15.86
2022-09-07T22:44:16.746Z,16.03
2022-09-07T22:46:46.975Z,15.87
2022-09-07T22:49:17.375Z,15.75
2022-09-07T22:51:46.363Z,15.59
2022-09-07T22:54:15.055Z,15.88
2022-09-07T22:56:43.736Z,15.73
2022-09-07T22:59:13.105Z,15.76
2022-09-07T23:01:42.035Z,15.71
2022-09-07T23:04:11.322Z,15.50
2022-09-07T23:06:55.547Z,15.18
2022-09-07T23:09:23.351Z,15.53
2022-09-07T23:11:50.820Z,14.99
2022-09-07T23:14:22.227Z,15.59
2022-09-07T23:16:51.160Z,15.53
2022-09-07T23:19:20.884Z,15.61
2022-09-07T23:21:49.768Z,15.62
2022-09-07T23:24:19.668Z,15.58
2022-09-07T23:26:49.568Z,15.21
